createdAt,value
2017-12-03T00:00:47.522Z,24.00
2017-12-03T00:03:15.863Z,27.10
2017-12-03T00:05:44.220Z,27.03
2017-12-03T00:08:12.593Z,41.27
2017-12-03T00:10:40.946Z,44.80
2017-12-03T00:13:10.056Z,30.97
2017-12-03T00:15:38.452Z,34.63
2017-12-03T00:18:06.808Z,30.93
2017-12-03T00:20:35.148Z,29.47
2017-12-03T00:23:03.497Z,29.37
2017-12-03T00:25:32.652Z,29.80
2017-12-03T00:28:03.666Z,27.80
2017-12-03T00:30:32.710Z,27.40
2017-12-03T00:33:01.673Z,30.90
2017-12-03T00:35:31.051Z,28.90
2017-12-03T00:38:00.221Z,32.73
2017-12-03T00:40:28.578Z,29.17
2017-12-03T00:42:57.106Z,29.93
2017-12-03T00:45:26.205Z,32.53
2017-12-03T00:47:55.326Z,31.43
2017-12-03T00:50:23.691Z,33.93
2017-12-03T00:52:52.814Z,33.33
2017-12-03T00:55:21.197Z,32.57
2017-12-03T00:57:49.535Z,30.90
2017-12-03T01:00:17.890Z,34.90
2017-12-03T01:02:46.244Z,33.90
2017-12-03T01:05:14.596Z,38.13
2017-12-03T01:07:43.162Z,33.77
2017-12-03T01:10:11.507Z,41.57
2017-12-03T01:12:40.438Z,37.13
2017-12-03T01:15:08.782Z,41.10
2017-12-03T01:17:37.714Z,39.77
2017-12-03T01:20:06.113Z,41.10
2017-12-03T01:22:34.301Z,45.20
2017-12-03T01:25:03.241Z,41.27
2017-12-03T01:27:31.762Z,43.23
2017-12-03T01:30:00.307Z,37.17
2017-12-03T01:32:28.652Z,38.37
2017-12-03T01:34:57.799Z,36.40
2017-12-03T01:37:26.138Z,35.13
2017-12-03T01:39:54.466Z,38.03
2017-12-03T01:42:22.542Z,41.37
2017-12-03T01:44:50.901Z,43.23
2017-12-03T01:47:19.250Z,39.40
2017-12-03T01:49:47.615Z,34.67
2017-12-03T01:52:15.967Z,36.00
2017-12-03T01:54:45.070Z,35.80
2017-12-03T01:57:14.188Z,36.00
2017-12-03T01:59:42.531Z,38.30
2017-12-03T02:02:11.007Z,40.43
2017-12-03T02:04:40.134Z,35.33
2017-12-03T02:07:07.807Z,37.40
2017-12-03T02:09:35.514Z,33.00
2017-12-03T02:12:03.539Z,35.10
2017-12-03T02:14:32.716Z,33.90
2017-12-03T02:17:01.683Z,35.50
2017-12-03T02:19:29.704Z,34.97
2017-12-03T02:21:57.408Z,36.93
2017-12-03T02:24:25.828Z,32.33
2017-12-03T02:26:54.189Z,31.83
2017-12-03T02:29:22.531Z,36.73
2017-12-03T02:31:50.871Z,36.13
2017-12-03T02:34:19.250Z,35.03
2017-12-03T02:36:47.787Z,31.63
2017-12-03T02:39:16.919Z,37.90
2017-12-03T02:41:45.272Z,35.30
2017-12-03T02:44:13.624Z,35.07
2017-12-03T02:46:42.742Z,34.23
2017-12-03T02:49:11.077Z,36.47
2017-12-03T02:51:39.425Z,34.13
2017-12-03T02:54:07.767Z,36.30
2017-12-03T02:56:36.097Z,37.30
2017-12-03T02:59:04.130Z,43.10
2017-12-03T03:01:32.931Z,57.30
2017-12-03T03:04:01.291Z,48.87
2017-12-03T03:06:29.307Z,46.80
2017-12-03T03:08:57.698Z,40.77
2017-12-03T03:11:26.851Z,38.37
2017-12-03T03:13:54.738Z,42.20
2017-12-03T03:16:23.119Z,41.17
2017-12-03T03:18:51.565Z,42.17
2017-12-03T03:21:19.942Z,39.97
2017-12-03T03:23:48.296Z,39.07
2017-12-03T03:26:16.654Z,36.37
2017-12-03T03:28:45.798Z,41.33
2017-12-03T03:31:14.131Z,38.17
2017-12-03T03:33:43.255Z,42.23
2017-12-03T03:36:11.291Z,43.97
2017-12-03T03:38:40.386Z,36.63
2017-12-03T03:41:09.501Z,36.07
2017-12-03T03:43:37.869Z,38.37
2017-12-03T03:46:06.206Z,42.83
2017-12-03T03:48:34.273Z,39.07
2017-12-03T03:51:03.242Z,39.77
2017-12-03T03:53:32.674Z,35.57
2017-12-03T03:56:00.456Z,36.77
2017-12-03T03:58:29.559Z,36.17
2017-12-03T04:00:58.012Z,37.87
2017-12-03T04:03:25.775Z,37.83
2017-12-03T04:05:54.117Z,34.13
2017-12-03T04:08:22.139Z,35.33
2017-12-03T04:10:50.606Z,35.93
2017-12-03T04:13:18.366Z,39.70
2017-12-03T04:15:46.733Z,32.27
2017-12-03T04:18:15.102Z,35.10
2017-12-03T04:20:42.985Z,34.60
2017-12-03T04:23:11.791Z,36.40
2017-12-03T04:25:40.707Z,34.97
2017-12-03T04:28:08.453Z,36.63
2017-12-03T04:30:36.613Z,35.30
2017-12-03T04:33:05.763Z,36.60
2017-12-03T04:35:33.779Z,34.80
2017-12-03T04:38:03.211Z,36.73
2017-12-03T04:40:31.742Z,35.67
2017-12-03T04:43:01.105Z,37.77
2017-12-03T04:45:28.782Z,41.37
2017-12-03T04:47:56.811Z,39.70
2017-12-03T04:50:24.815Z,36.97
2017-12-03T04:52:52.530Z,39.73
2017-12-03T04:55:20.202Z,40.10
2017-12-03T04:57:47.897Z,39.00
2017-12-03T05:00:15.622Z,39.43
2017-12-03T05:02:43.435Z,38.00
2017-12-03T05:05:11.129Z,42.87
2017-12-03T05:07:39.587Z,42.07
2017-12-03T05:10:07.304Z,43.87
2017-12-03T05:12:35.991Z,46.43
2017-12-03T05:15:03.671Z,41.43
2017-12-03T05:17:31.355Z,41.77
2017-12-03T05:19:59.064Z,41.80
2017-12-03T05:22:27.067Z,41.60
2017-12-03T05:24:55.450Z,48.23
2017-12-03T05:27:23.126Z,39.33
2017-12-03T05:29:50.896Z,41.37
2017-12-03T05:32:19.690Z,47.07
2017-12-03T05:34:48.486Z,43.87
2017-12-03T05:37:16.496Z,46.67
2017-12-03T05:39:44.208Z,43.37
2017-12-03T05:42:12.985Z,44.50
2017-12-03T05:44:41.455Z,43.37
2017-12-03T05:47:09.791Z,44.43
2017-12-03T05:49:38.273Z,46.60
2017-12-03T05:52:06.307Z,45.13
2017-12-03T05:54:34.380Z,44.37
2017-12-03T05:57:03.120Z,43.10
2017-12-03T05:59:32.143Z,42.20
2017-12-03T06:02:01.310Z,43.33
2017-12-03T06:04:29.318Z,49.23
2017-12-03T06:06:57.004Z,46.77
2017-12-03T06:09:24.690Z,45.13
2017-12-03T06:11:53.079Z,46.27
2017-12-03T06:14:20.571Z,47.83
2017-12-03T06:16:48.912Z,48.23
2017-12-03T06:19:16.442Z,43.63
2017-12-03T06:21:43.954Z,49.13
2017-12-03T06:24:12.427Z,47.03
2017-12-03T06:26:40.875Z,47.53
2017-12-03T06:29:08.565Z,46.33
2017-12-03T06:31:37.032Z,49.47
2017-12-03T06:34:04.797Z,47.43
2017-12-03T06:36:33.187Z,46.43
2017-12-03T06:39:02.401Z,47.00
2017-12-03T06:41:31.728Z,43.47
2017-12-03T06:43:59.419Z,43.47
2017-12-03T06:46:27.089Z,47.20
2017-12-03T06:48:55.136Z,47.63
2017-12-03T06:51:23.920Z,49.93
2017-12-03T06:53:51.600Z,48.17
2017-12-03T06:56:19.291Z,46.60
2017-12-03T06:58:48.087Z,49.27
2017-12-03T07:01:16.863Z,50.50
2017-12-03T07:03:45.981Z,45.37
2017-12-03T07:06:13.671Z,50.93
2017-12-03T07:08:42.037Z,47.33
2017-12-03T07:11:09.712Z,47.43
2017-12-03T07:13:37.396Z,43.77
2017-12-03T07:16:05.104Z,49.83
2017-12-03T07:18:33.117Z,49.80
2017-12-03T07:21:01.311Z,52.37
2017-12-03T07:23:29.750Z,55.03
2017-12-03T07:25:57.768Z,54.73
2017-12-03T07:28:26.377Z,46.53
2017-12-03T07:30:54.067Z,48.70
2017-12-03T07:33:21.743Z,46.50
2017-12-03T07:35:49.588Z,52.37
2017-12-03T07:38:17.092Z,42.70
2017-12-03T07:40:44.956Z,46.60
2017-12-03T07:43:13.718Z,45.03
2017-12-03T07:45:41.206Z,50.30
2017-12-03T07:48:09.714Z,47.67
2017-12-03T07:50:37.406Z,46.53
2017-12-03T07:53:05.102Z,50.07
2017-12-03T07:55:33.555Z,48.00
2017-12-03T07:58:01.753Z,48.47
2017-12-03T08:00:30.547Z,52.47
2017-12-03T08:02:59.323Z,43.40
2017-12-03T08:05:28.104Z,49.00
2017-12-03T08:07:56.215Z,44.17
2017-12-03T08:10:23.904Z,43.77
2017-12-03T08:12:52.391Z,42.97
2017-12-03T08:15:20.110Z,43.83
2017-12-03T08:17:47.834Z,40.80
2017-12-03T08:20:15.846Z,39.37
2017-12-03T08:22:43.867Z,42.93
2017-12-03T08:25:11.538Z,39.43
2017-12-03T08:27:40.004Z,39.80
2017-12-03T08:30:07.670Z,34.43
2017-12-03T08:32:35.696Z,29.43
2017-12-03T08:35:03.720Z,27.23
2017-12-03T08:37:33.340Z,29.77
2017-12-03T08:40:02.874Z,29.47
2017-12-03T08:42:31.289Z,29.97
2017-12-03T08:44:58.967Z,32.70
2017-12-03T08:47:27.445Z,33.37
2017-12-03T08:49:55.123Z,32.93
2017-12-03T08:52:24.542Z,36.77
2017-12-03T08:54:52.586Z,34.83
2017-12-03T08:57:21.704Z,32.27
2017-12-03T08:59:49.740Z,28.63
2017-12-03T09:02:18.403Z,29.47
2017-12-03T09:04:46.753Z,27.37
2017-12-03T09:07:14.779Z,25.93
2017-12-03T09:09:43.224Z,24.93
2017-12-03T09:12:11.969Z,25.57
2017-12-03T09:14:39.980Z,25.77
2017-12-03T09:17:07.678Z,25.40
2017-12-03T09:19:36.145Z,23.27
2017-12-03T09:22:03.890Z,22.00
2017-12-03T09:24:32.608Z,28.50
2017-12-03T09:27:01.766Z,22.73
2017-12-03T09:29:30.138Z,22.30
2017-12-03T09:31:58.795Z,25.50
2017-12-03T09:34:26.476Z,29.77
2017-12-03T09:36:54.170Z,26.53
2017-12-03T09:39:21.840Z,26.17
2017-12-03T09:41:51.291Z,23.87
2017-12-03T09:44:19.304Z,26.57
2017-12-03T09:46:47.332Z,22.77
2017-12-03T09:49:15.033Z,27.10
2017-12-03T09:51:42.722Z,23.67
2017-12-03T09:54:10.407Z,22.33
2017-12-03T09:56:38.115Z,26.20
2017-12-03T09:59:05.798Z,24.37
2017-12-03T10:01:34.558Z,26.30
2017-12-03T10:04:03.133Z,23.33
2017-12-03T10:06:31.385Z,27.17
2017-12-03T10:08:59.103Z,28.50
2017-12-03T10:11:27.119Z,28.27
2017-12-03T10:13:55.263Z,28.97
2017-12-03T10:16:22.944Z,28.03
2017-12-03T10:18:50.960Z,26.67
2017-12-03T10:21:18.972Z,30.23
2017-12-03T10:23:46.643Z,28.67
2017-12-03T10:26:14.655Z,29.57
2017-12-03T10:28:42.447Z,28.20
2017-12-03T10:31:10.456Z,28.43
2017-12-03T10:33:38.321Z,30.17
2017-12-03T10:36:06.015Z,28.33
2017-12-03T10:38:34.271Z,29.83
2017-12-03T10:41:03.238Z,28.67
2017-12-03T10:43:31.593Z,27.57
2017-12-03T10:46:00.074Z,30.30
2017-12-03T10:48:28.427Z,30.90
2017-12-03T10:50:57.243Z,28.27
2017-12-03T10:53:25.564Z,27.37
2017-12-03T10:55:53.960Z,30.40
2017-12-03T10:58:22.727Z,31.00
2017-12-03T11:00:50.733Z,30.73
2017-12-03T11:03:19.082Z,29.90
2017-12-03T11:05:47.023Z,28.80
2017-12-03T11:08:15.635Z,29.33
2017-12-03T11:10:43.656Z,30.10
2017-12-03T11:13:11.663Z,27.97
2017-12-03T11:15:40.047Z,29.93
2017-12-03T11:18:08.194Z,29.50
2017-12-03T11:20:36.526Z,28.50
2017-12-03T11:23:04.889Z,27.33
2017-12-03T11:25:33.980Z,30.90
2017-12-03T11:28:03.368Z,29.37
2017-12-03T11:30:31.728Z,26.67
2017-12-03T11:33:00.077Z,30.00
2017-12-03T11:35:28.435Z,30.37
2017-12-03T11:37:56.809Z,29.87
2017-12-03T11:40:25.170Z,36.43
2017-12-03T11:42:54.275Z,32.93
2017-12-03T11:45:23.043Z,35.07
2017-12-03T11:47:52.183Z,33.50
2017-12-03T11:50:20.850Z,36.80
2017-12-03T11:52:49.202Z,32.67
2017-12-03T11:55:18.395Z,36.20
2017-12-03T11:57:46.746Z,32.20
2017-12-03T12:00:15.115Z,34.43
2017-12-03T12:02:43.496Z,31.70
2017-12-03T12:05:11.844Z,33.07
2017-12-03T12:07:40.174Z,30.77
2017-12-03T12:10:08.553Z,31.17
2017-12-03T12:12:36.948Z,31.37
2017-12-03T12:15:06.085Z,29.63
2017-12-03T12:17:34.445Z,27.87
2017-12-03T12:20:02.786Z,23.70
2017-12-03T12:22:31.358Z,28.93
2017-12-03T12:24:59.748Z,26.53
2017-12-03T12:27:28.869Z,28.43
2017-12-03T12:29:57.224Z,26.83
2017-12-03T12:32:26.335Z,28.23
2017-12-03T12:34:54.522Z,25.70
2017-12-03T12:37:22.725Z,30.47
2017-12-03T12:39:51.798Z,29.00
2017-12-03T12:42:20.157Z,29.03
2017-12-03T12:44:48.320Z,28.17
2017-12-03T12:47:16.145Z,25.07
2017-12-03T12:49:44.187Z,28.97
2017-12-03T12:52:12.551Z,27.13
2017-12-03T12:54:40.253Z,27.90
2017-12-03T12:57:07.974Z,28.20
2017-12-03T12:59:36.311Z,29.97
2017-12-03T13:02:04.652Z,27.23
2017-12-03T13:04:33.491Z,29.20
2017-12-03T13:07:02.996Z,25.47
2017-12-03T13:09:32.138Z,25.43
2017-12-03T13:12:00.766Z,28.83
2017-12-03T13:14:29.909Z,29.13
2017-12-03T13:16:58.272Z,29.67
2017-12-03T13:19:26.623Z,32.77
2017-12-03T13:21:55.757Z,29.33
2017-12-03T13:24:24.197Z,32.63
2017-12-03T13:26:53.328Z,34.40
2017-12-03T13:29:21.674Z,31.83
2017-12-03T13:31:50.789Z,33.03
2017-12-03T13:34:19.137Z,27.73
2017-12-03T13:36:48.240Z,32.80
2017-12-03T13:39:17.350Z,28.43
2017-12-03T13:41:45.715Z,27.87
2017-12-03T13:44:14.867Z,29.30
2017-12-03T13:46:43.384Z,28.50
2017-12-03T13:49:12.490Z,31.03
2017-12-03T13:51:40.919Z,28.03
2017-12-03T13:54:09.091Z,29.67
2017-12-03T13:56:37.430Z,32.70
2017-12-03T13:59:05.585Z,29.57
2017-12-03T14:01:33.939Z,29.63
2017-12-03T14:04:02.817Z,29.77
2017-12-03T14:06:31.421Z,32.40
2017-12-03T14:08:59.577Z,30.43
2017-12-03T14:11:28.011Z,35.17
2017-12-03T14:13:56.346Z,34.97
2017-12-03T14:16:24.711Z,29.37
2017-12-03T14:18:52.893Z,31.87
2017-12-03T14:21:21.078Z,29.93
2017-12-03T14:23:50.006Z,30.37
2017-12-03T14:26:18.170Z,28.87
2017-12-03T14:28:46.339Z,29.23
2017-12-03T14:31:14.793Z,29.97
2017-12-03T14:33:43.159Z,32.43
2017-12-03T14:36:11.530Z,34.90
2017-12-03T14:38:39.907Z,46.33
2017-12-03T14:41:08.253Z,47.30
2017-12-03T14:43:36.596Z,57.77
2017-12-03T14:46:05.606Z,49.87
2017-12-03T14:48:33.491Z,49.00
2017-12-03T14:51:02.717Z,41.87
2017-12-03T14:53:31.091Z,32.93
2017-12-03T14:55:59.470Z,31.10
2017-12-03T14:58:27.873Z,31.30
2017-12-03T15:00:56.984Z,29.53
2017-12-03T15:03:25.352Z,30.07
2017-12-03T15:05:54.478Z,29.63
2017-12-03T15:08:22.855Z,28.83
2017-12-03T15:10:52.946Z,30.77
2017-12-03T15:13:21.320Z,28.57
2017-12-03T15:15:50.108Z,30.33
2017-12-03T15:18:18.565Z,30.43
2017-12-03T15:20:46.358Z,32.23
2017-12-03T15:23:14.845Z,30.60
2017-12-03T15:25:43.282Z,41.50
2017-12-03T15:28:10.970Z,33.33
2017-12-03T15:30:39.424Z,36.73
2017-12-03T15:33:07.272Z,35.33
2017-12-03T15:35:34.952Z,33.27
2017-12-03T15:38:02.875Z,29.33
2017-12-03T15:40:30.979Z,31.40
2017-12-03T15:42:58.457Z,33.90
2017-12-03T15:45:26.163Z,31.80
2017-12-03T15:47:53.870Z,32.27
2017-12-03T15:50:21.562Z,30.73
2017-12-03T15:52:50.007Z,31.80
2017-12-03T15:55:17.716Z,30.97
2017-12-03T15:57:45.407Z,30.57
2017-12-03T16:00:13.095Z,32.50
2017-12-03T16:02:40.639Z,26.47
2017-12-03T16:05:08.509Z,27.27
2017-12-03T16:07:36.217Z,28.40
2017-12-03T16:10:05.356Z,30.37
2017-12-03T16:12:33.710Z,27.97
2017-12-03T16:15:03.097Z,31.03
2017-12-03T16:17:31.872Z,50.77
2017-12-03T16:20:00.727Z,43.80
2017-12-03T16:22:32.618Z,61.03
2017-12-03T16:25:01.746Z,49.83
2017-12-03T16:27:29.779Z,48.90
2017-12-03T16:29:57.509Z,61.70
2017-12-03T16:32:25.185Z,55.40
2017-12-03T16:34:53.242Z,65.37
2017-12-03T16:37:21.268Z,66.70
2017-12-03T16:39:50.045Z,54.67
2017-12-03T16:42:19.209Z,66.50
2017-12-03T16:44:47.211Z,60.57
2017-12-03T16:47:15.578Z,55.50
2017-12-03T16:49:43.953Z,48.00
2017-12-03T16:52:12.315Z,44.60
2017-12-03T16:54:40.352Z,38.07
2017-12-03T16:57:08.384Z,34.80
2017-12-03T16:59:37.166Z,38.37
2017-12-03T17:02:05.657Z,35.37
2017-12-03T17:04:34.180Z,34.17
2017-12-03T17:07:03.252Z,32.83
2017-12-03T17:09:31.718Z,31.20
2017-12-03T17:12:00.896Z,32.30
2017-12-03T17:14:28.921Z,29.90
2017-12-03T17:16:56.956Z,30.90
2017-12-03T17:19:25.385Z,30.87
2017-12-03T17:21:53.773Z,31.80
2017-12-03T17:24:21.443Z,33.97
2017-12-03T17:26:48.960Z,34.83
2017-12-03T17:29:16.684Z,35.20
2017-12-03T17:31:45.128Z,85.20
2017-12-03T17:34:13.461Z,83.33
2017-12-03T17:36:41.840Z,75.97
2017-12-03T17:39:10.195Z,62.80
2017-12-03T17:41:39.312Z,59.33
2017-12-03T17:44:07.656Z,79.83
2017-12-03T17:46:36.025Z,59.37
2017-12-03T17:49:04.389Z,56.47
2017-12-03T17:51:33.026Z,45.57
2017-12-03T17:54:01.579Z,64.20
2017-12-03T17:56:29.788Z,117.57
2017-12-03T17:58:57.952Z,76.43
2017-12-03T18:01:26.381Z,69.70
2017-12-03T18:03:54.753Z,57.23
2017-12-03T18:06:23.861Z,44.33
2017-12-03T18:08:52.202Z,38.20
2017-12-03T18:11:20.587Z,32.73
2017-12-03T18:13:48.934Z,33.80
2017-12-03T18:16:17.315Z,28.73
2017-12-03T18:18:45.684Z,30.33
2017-12-03T18:21:14.054Z,25.80
2017-12-03T18:23:43.178Z,27.50
2017-12-03T18:26:11.655Z,24.90
2017-12-03T18:28:39.683Z,22.87
2017-12-03T18:31:07.725Z,28.10
2017-12-03T18:33:35.742Z,24.80
2017-12-03T18:36:04.318Z,24.73
2017-12-03T18:38:33.419Z,27.13
2017-12-03T18:41:02.466Z,21.37
2017-12-03T18:43:31.900Z,20.87
2017-12-03T18:45:59.430Z,19.90
2017-12-03T18:48:26.948Z,20.53
2017-12-03T18:50:55.104Z,19.93
2017-12-03T18:53:23.714Z,20.13
2017-12-03T18:55:51.541Z,18.30
2017-12-03T18:58:20.505Z,18.23
2017-12-03T19:00:48.004Z,19.63
2017-12-03T19:03:17.115Z,17.43
2017-12-03T19:05:45.162Z,17.23
2017-12-03T19:08:14.297Z,16.03
2017-12-03T19:10:42.124Z,17.87
2017-12-03T19:13:10.727Z,16.87
2017-12-03T19:15:39.075Z,15.03
2017-12-03T19:18:07.812Z,16.80
2017-12-03T19:20:35.829Z,15.97
2017-12-03T19:23:04.363Z,18.80
2017-12-03T19:25:33.561Z,17.53
2017-12-03T19:28:01.904Z,15.57
2017-12-03T19:30:31.672Z,18.13
2017-12-03T19:32:59.732Z,20.77
2017-12-03T19:35:28.336Z,16.77
2017-12-03T19:37:56.708Z,19.80
2017-12-03T19:40:25.047Z,16.97
2017-12-03T19:42:53.044Z,14.80
2017-12-03T19:45:21.473Z,14.40
2017-12-03T19:47:50.587Z,16.80
2017-12-03T19:50:18.619Z,13.10
2017-12-03T19:52:47.051Z,13.10
2017-12-03T19:55:15.089Z,13.03
2017-12-03T19:57:44.202Z,14.93
2017-12-03T20:00:12.545Z,12.90
2017-12-03T20:02:41.703Z,14.77
2017-12-03T20:05:10.035Z,13.13
2017-12-03T20:07:38.422Z,14.33
2017-12-03T20:10:06.119Z,17.80
2017-12-03T20:12:34.453Z,15.00
2017-12-03T20:15:04.714Z,13.50
2017-12-03T20:17:32.799Z,14.80
2017-12-03T20:20:01.843Z,15.37
2017-12-03T20:22:29.867Z,17.47
2017-12-03T20:24:58.498Z,16.60
2017-12-03T20:27:27.331Z,15.23
2017-12-03T20:29:56.572Z,17.43
2017-12-03T20:32:25.256Z,21.30
2017-12-03T20:34:54.422Z,15.60
2017-12-03T20:37:22.593Z,15.40
2017-12-03T20:39:50.486Z,20.70
2017-12-03T20:42:19.233Z,19.77
2017-12-03T20:44:46.765Z,19.57
2017-12-03T20:47:15.215Z,24.83
2017-12-03T20:49:43.084Z,21.60
2017-12-03T20:52:12.227Z,56.17
2017-12-03T20:54:40.723Z,52.40
2017-12-03T20:57:09.080Z,50.90
2017-12-03T20:59:37.604Z,45.53
2017-12-03T21:02:06.678Z,36.67
2017-12-03T21:04:34.707Z,33.27
2017-12-03T21:07:03.702Z,43.23
2017-12-03T21:09:32.034Z,42.20
2017-12-03T21:12:01.728Z,44.77
2017-12-03T21:14:29.775Z,46.50
2017-12-03T21:16:58.325Z,43.27
2017-12-03T21:19:26.719Z,48.93
2017-12-03T21:21:54.533Z,31.87
2017-12-03T21:24:22.389Z,37.17
2017-12-03T21:26:50.766Z,45.40
2017-12-03T21:29:18.803Z,50.27
2017-12-03T21:31:47.187Z,36.93
2017-12-03T21:34:15.713Z,38.83
2017-12-03T21:36:44.109Z,32.63
2017-12-03T21:39:13.248Z,35.73
2017-12-03T21:41:41.618Z,34.97
2017-12-03T21:44:09.962Z,40.83
2017-12-03T21:46:38.741Z,45.13
2017-12-03T21:49:07.886Z,35.53
2017-12-03T21:51:36.254Z,50.63
2017-12-03T21:54:04.600Z,42.17
2017-12-03T21:56:33.196Z,41.67
2017-12-03T21:59:02.229Z,43.87
2017-12-03T22:01:30.567Z,42.30
2017-12-03T22:03:58.918Z,40.87
2017-12-03T22:06:28.029Z,44.97
2017-12-03T22:08:56.385Z,40.77
2017-12-03T22:11:25.506Z,44.20
2017-12-03T22:13:53.871Z,35.63
2017-12-03T22:16:22.991Z,53.80
2017-12-03T22:18:51.346Z,30.33
2017-12-03T22:21:20.475Z,40.37
2017-12-03T22:23:48.819Z,50.63
2017-12-03T22:26:17.175Z,50.63
2017-12-03T22:28:45.615Z,48.83
2017-12-03T22:31:13.957Z,49.23
2017-12-03T22:33:42.399Z,48.50
2017-12-03T22:36:10.739Z,49.20
2017-12-03T22:38:39.133Z,59.20
2017-12-03T22:41:07.495Z,44.90
2017-12-03T22:43:35.826Z,32.00
2017-12-03T22:46:04.941Z,27.53
2017-12-03T22:48:33.299Z,30.97
2017-12-03T22:51:02.072Z,34.93
2017-12-03T22:53:30.440Z,34.37
2017-12-03T22:55:58.786Z,37.90
2017-12-03T22:58:27.121Z,37.77
2017-12-03T23:00:56.248Z,37.70
2017-12-03T23:03:24.593Z,31.37
2017-12-03T23:05:53.687Z,41.73
2017-12-03T23:08:22.821Z,32.50
2017-12-03T23:10:51.157Z,38.93
2017-12-03T23:13:19.721Z,31.90
2017-12-03T23:15:48.060Z,29.00
2017-12-03T23:18:16.396Z,28.90
2017-12-03T23:20:45.183Z,27.23
2017-12-03T23:23:13.959Z,26.63
2017-12-03T23:25:42.411Z,28.47
2017-12-03T23:28:10.592Z,29.13
2017-12-03T23:30:38.596Z,30.93
2017-12-03T23:33:07.536Z,23.50
2017-12-03T23:35:35.205Z,24.00
2017-12-03T23:38:04.557Z,23.63
2017-12-03T23:40:33.262Z,27.17
2017-12-03T23:43:01.137Z,23.40
2017-12-03T23:45:28.611Z,23.40
2017-12-03T23:47:56.640Z,21.77
2017-12-03T23:50:24.650Z,24.13
2017-12-03T23:52:52.349Z,24.17
2017-12-03T23:55:20.807Z,23.87
2017-12-03T23:57:48.861Z,25.03
